sensor_id;sensor_type;location;lat;lon;timestamp;P1;durP1;ratioP1;P2;durP2;ratioP2
6693;SDS011;3384;42.628;23.380;2023-05-03T00:01:08;0.90;;;0.90;;
6693;SDS011;3384;42.628;23.380;2023-05-03T00:03:34;6.63;;;1.67;;
6693;SDS011;3384;42.628;23.380;2023-05-03T00:06:08;1.10;;;1.10;;
6693;SDS011;3384;42.628;23.380;2023-05-03T00:08:35;1.20;;;1.20;;
6693;SDS011;3384;42.628;23.380;2023-05-03T00:11:01;0.77;;;0.77;;
6693;SDS011;3384;42.628;23.380;2023-05-03T00:13:28;1.17;;;1.17;;
6693;SDS011;3384;42.628;23.380;2023-05-03T00:15:54;5.30;;;1.17;;
6693;SDS011;3384;42.628;23.380;2023-05-03T00:18:22;1.20;;;1.10;;
6693;SDS011;3384;42.628;23.380;2023-05-03T00:20:49;1.13;;;1.10;;
6693;SDS011;3384;42.628;23.380;2023-05-03T00:23:17;5.33;;;2.80;;
6693;SDS011;3384;42.628;23.380;2023-05-03T00:25:43;1.87;;;1.33;;
6693;SDS011;3384;42.628;23.380;2023-05-03T00:28:10;1.10;;;1.10;;
6693;SDS011;3384;42.628;23.380;2023-05-03T00:30:37;11.60;;;1.63;;
6693;SDS011;3384;42.628;23.380;2023-05-03T00:33:03;1.23;;;1.23;;
6693;SDS011;3384;42.628;23.380;2023-05-03T00:35:31;1.20;;;1.20;;
6693;SDS011;3384;42.628;23.380;2023-05-03T00:37:58;4.03;;;1.13;;
6693;SDS011;3384;42.628;23.380;2023-05-03T00:40:24;5.70;;;1.50;;
6693;SDS011;3384;42.628;23.380;2023-05-03T00:42:51;5.20;;;1.47;;
6693;SDS011;3384;42.628;23.380;2023-05-03T00:45:18;5.97;;;1.60;;
6693;SDS011;3384;42.628;23.380;2023-05-03T00:47:44;1.67;;;1.50;;
6693;SDS011;3384;42.628;23.380;2023-05-03T00:50:11;3.30;;;1.87;;
6693;SDS011;3384;42.628;23.380;2023-05-03T00:52:39;2.40;;;1.20;;
6693;SDS011;3384;42.628;23.380;2023-05-03T00:55:06;1.23;;;1.20;;
6693;SDS011;3384;42.628;23.380;2023-05-03T00:57:34;1.20;;;1.20;;
6693;SDS011;3384;42.628;23.380;2023-05-03T01:00:00;0.90;;;0.90;;
6693;SDS011;3384;42.628;23.380;2023-05-03T01:02:27;1.93;;;1.70;;
6693;SDS011;3384;42.628;23.380;2023-05-03T01:04:54;2.83;;;1.20;;
6693;SDS011;3384;42.628;23.380;2023-05-03T01:07:22;5.60;;;1.87;;
6693;SDS011;3384;42.628;23.380;2023-05-03T01:09:54;1.60;;;1.50;;
6693;SDS011;3384;42.628;23.380;2023-05-03T01:12:27;1.30;;;1.20;;
6693;SDS011;3384;42.628;23.380;2023-05-03T01:14:58;1.63;;;1.53;;
6693;SDS011;3384;42.628;23.380;2023-05-03T01:17:27;2.10;;;2.00;;
6693;SDS011;3384;42.628;23.380;2023-05-03T01:19:55;1.77;;;1.67;;
6693;SDS011;3384;42.628;23.380;2023-05-03T01:22:25;2.10;;;1.37;;
6693;SDS011;3384;42.628;23.380;2023-05-03T01:24:57;1.60;;;1.50;;
6693;SDS011;3384;42.628;23.380;2023-05-03T01:27:25;1.67;;;1.57;;
6693;SDS011;3384;42.628;23.380;2023-05-03T01:29:52;2.63;;;1.60;;
6693;SDS011;3384;42.628;23.380;2023-05-03T01:32:20;1.80;;;1.40;;
6693;SDS011;3384;42.628;23.380;2023-05-03T01:34:52;2.23;;;2.13;;
6693;SDS011;3384;42.628;23.380;2023-05-03T01:37:20;2.20;;;1.10;;
6693;SDS011;3384;42.628;23.380;2023-05-03T01:39:47;1.30;;;1.20;;
6693;SDS011;3384;42.628;23.380;2023-05-03T01:42:17;1.97;;;1.83;;
6693;SDS011;3384;42.628;23.380;2023-05-03T01:44:44;2.57;;;1.50;;
6693;SDS011;3384;42.628;23.380;2023-05-03T01:47:12;1.67;;;1.60;;
6693;SDS011;3384;42.628;23.380;2023-05-03T01:49:40;1.30;;;1.20;;
6693;SDS011;3384;42.628;23.380;2023-05-03T01:52:06;2.70;;;1.90;;
6693;SDS011;3384;42.628;23.380;2023-05-03T01:54:33;1.67;;;1.57;;
6693;SDS011;3384;42.628;23.380;2023-05-03T01:56:59;1.87;;;1.77;;
6693;SDS011;3384;42.628;23.380;2023-05-03T01:59:28;1.70;;;1.30;;
6693;SDS011;3384;42.628;23.380;2023-05-03T02:01:55;2.40;;;1.10;;
6693;SDS011;3384;42.628;23.380;2023-05-03T02:04:21;1.83;;;1.43;;
6693;SDS011;3384;42.628;23.380;2023-05-03T02:06:48;5.40;;;1.70;;
6693;SDS011;3384;42.628;23.380;2023-05-03T02:09:14;1.90;;;1.40;;
6693;SDS011;3384;42.628;23.380;2023-05-03T02:11:41;1.43;;;1.40;;
6693;SDS011;3384;42.628;23.380;2023-05-03T02:14:08;1.77;;;1.60;;
6693;SDS011;3384;42.628;23.380;2023-05-03T02:16:36;2.40;;;1.53;;
6693;SDS011;3384;42.628;23.380;2023-05-03T02:19:02;1.80;;;1.70;;
6693;SDS011;3384;42.628;23.380;2023-05-03T02:21:29;5.50;;;1.40;;
6693;SDS011;3384;42.628;23.380;2023-05-03T02:23:56;1.87;;;1.63;;
6693;SDS011;3384;42.628;23.380;2023-05-03T02:26:23;1.23;;;1.23;;
6693;SDS011;3384;42.628;23.380;2023-05-03T02:28:50;1.73;;;1.63;;
6693;SDS011;3384;42.628;23.380;2023-05-03T02:31:17;1.53;;;1.43;;
6693;SDS011;3384;42.628;23.380;2023-05-03T02:33:45;2.40;;;1.17;;
6693;SDS011;3384;42.628;23.380;2023-05-03T02:36:11;3.20;;;2.30;;
6693;SDS011;3384;42.628;23.380;2023-05-03T02:38:38;6.20;;;1.80;;
6693;SDS011;3384;42.628;23.380;2023-05-03T02:41:05;2.37;;;1.40;;
6693;SDS011;3384;42.628;23.380;2023-05-03T02:43:31;1.80;;;1.70;;
6693;SDS011;3384;42.628;23.380;2023-05-03T02:45:58;3.50;;;2.07;;
6693;SDS011;3384;42.628;23.380;2023-05-03T02:48:24;2.50;;;2.20;;
6693;SDS011;3384;42.628;23.380;2023-05-03T02:50:53;4.47;;;1.87;;
6693;SDS011;3384;42.628;23.380;2023-05-03T02:53:20;1.77;;;1.67;;
6693;SDS011;3384;42.628;23.380;2023-05-03T02:55:47;2.60;;;1.60;;
6693;SDS011;3384;42.628;23.380;2023-05-03T02:58:16;1.40;;;1.30;;
6693;SDS011;3384;42.628;23.380;2023-05-03T03:00:42;1.63;;;1.53;;
6693;SDS011;3384;42.628;23.380;2023-05-03T03:03:09;1.10;;;1.10;;
6693;SDS011;3384;42.628;23.380;2023-05-03T03:05:35;1.30;;;1.20;;
6693;SDS011;3384;42.628;23.380;2023-05-03T03:08:04;2.60;;;1.30;;
6693;SDS011;3384;42.628;23.380;2023-05-03T03:10:30;1.53;;;1.43;;
6693;SDS011;3384;42.628;23.380;2023-05-03T03:12:57;1.47;;;1.37;;
6693;SDS011;3384;42.628;23.380;2023-05-03T03:15:24;2.27;;;1.60;;
6693;SDS011;3384;42.628;23.380;2023-05-03T03:17:50;2.40;;;2.20;;
6693;SDS011;3384;42.628;23.380;2023-05-03T03:20:21;2.70;;;1.00;;
6693;SDS011;3384;42.628;23.380;2023-05-03T03:22:48;6.73;;;1.60;;
6693;SDS011;3384;42.628;23.380;2023-05-03T03:25:16;3.80;;;1.60;;
6693;SDS011;3384;42.628;23.380;2023-05-03T03:27:42;1.63;;;1.30;;
6693;SDS011;3384;42.628;23.380;2023-05-03T03:30:10;1.90;;;1.80;;
6693;SDS011;3384;42.628;23.380;2023-05-03T03:32:36;7.27;;;1.40;;
6693;SDS011;3384;42.628;23.380;2023-05-03T03:35:03;3.23;;;1.63;;
6693;SDS011;3384;42.628;23.380;2023-05-03T03:37:30;4.10;;;1.60;;
6693;SDS011;3384;42.628;23.380;2023-05-03T03:39:56;1.50;;;1.40;;
6693;SDS011;3384;42.628;23.380;2023-05-03T03:42:25;3.37;;;1.27;;
6693;SDS011;3384;42.628;23.380;2023-05-03T03:44:51;2.87;;;2.30;;
6693;SDS011;3384;42.628;23.380;2023-05-03T03:47:18;2.80;;;1.63;;
6693;SDS011;3384;42.628;23.380;2023-05-03T03:49:44;2.70;;;1.53;;
6693;SDS011;3384;42.628;23.380;2023-05-03T03:52:11;4.93;;;1.03;;
6693;SDS011;3384;42.628;23.380;2023-05-03T03:54:37;1.57;;;1.47;;
6693;SDS011;3384;42.628;23.380;2023-05-03T03:57:05;4.20;;;1.50;;
6693;SDS011;3384;42.628;23.380;2023-05-03T03:59:34;18.47;;;1.60;;
6693;SDS011;3384;42.628;23.380;2023-05-03T04:02:01;3.30;;;1.50;;
6693;SDS011;3384;42.628;23.380;2023-05-03T04:04:27;1.40;;;1.30;;
6693;SDS011;3384;42.628;23.380;2023-05-03T04:06:55;1.87;;;1.77;;
6693;SDS011;3384;42.628;23.380;2023-05-03T04:09:22;1.87;;;1.77;;
6693;SDS011;3384;42.628;23.380;2023-05-03T04:11:48;6.10;;;3.67;;
6693;SDS011;3384;42.628;23.380;2023-05-03T04:14:15;4.63;;;2.43;;
6693;SDS011;3384;42.628;23.380;2023-05-03T04:16:43;2.37;;;1.80;;
6693;SDS011;3384;42.628;23.380;2023-05-03T04:19:10;1.77;;;1.67;;
6693;SDS011;3384;42.628;23.380;2023-05-03T04:21:36;1.77;;;1.67;;
6693;SDS011;3384;42.628;23.380;2023-05-03T04:24:03;1.80;;;1.70;;
6693;SDS011;3384;42.628;23.380;2023-05-03T04:26:30;1.70;;;1.70;;
6693;SDS011;3384;42.628;23.380;2023-05-03T04:28:56;2.63;;;1.53;;
6693;SDS011;3384;42.628;23.380;2023-05-03T04:31:23;1.90;;;1.80;;
6693;SDS011;3384;42.628;23.380;2023-05-03T04:33:52;3.33;;;2.00;;
6693;SDS011;3384;42.628;23.380;2023-05-03T04:36:18;2.30;;;2.10;;
6693;SDS011;3384;42.628;23.380;2023-05-03T04:38:49;5.13;;;1.77;;
6693;SDS011;3384;42.628;23.380;2023-05-03T04:41:16;3.70;;;2.50;;
6693;SDS011;3384;42.628;23.380;2023-05-03T04:43:42;1.63;;;1.53;;
6693;SDS011;3384;42.628;23.380;2023-05-03T04:46:09;2.60;;;2.40;;
6693;SDS011;3384;42.628;23.380;2023-05-03T04:48:35;2.10;;;1.80;;
6693;SDS011;3384;42.628;23.380;2023-05-03T04:51:03;2.23;;;2.03;;
6693;SDS011;3384;42.628;23.380;2023-05-03T04:53:30;2.33;;;1.90;;
6693;SDS011;3384;42.628;23.380;2023-05-03T04:55:57;3.67;;;2.17;;
6693;SDS011;3384;42.628;23.380;2023-05-03T04:58:23;1.80;;;1.70;;
6693;SDS011;3384;42.628;23.380;2023-05-03T05:00:50;1.60;;;1.60;;
6693;SDS011;3384;42.628;23.380;2023-05-03T05:03:19;2.83;;;1.93;;
6693;SDS011;3384;42.628;23.380;2023-05-03T05:05:46;2.90;;;2.20;;
6693;SDS011;3384;42.628;23.380;2023-05-03T05:08:14;2.37;;;2.27;;
6693;SDS011;3384;42.628;23.380;2023-05-03T05:10:40;2.93;;;2.73;;
6693;SDS011;3384;42.628;23.380;2023-05-03T05:13:07;3.07;;;2.20;;
6693;SDS011;3384;42.628;23.380;2023-05-03T05:15:34;7.80;;;2.60;;
6693;SDS011;3384;42.628;23.380;2023-05-03T05:18:00;2.30;;;2.10;;
6693;SDS011;3384;42.628;23.380;2023-05-03T05:20:27;2.40;;;2.30;;
6693;SDS011;3384;42.628;23.380;2023-05-03T05:22:53;2.83;;;2.63;;
6693;SDS011;3384;42.628;23.380;2023-05-03T05:25:21;3.37;;;2.63;;
6693;SDS011;3384;42.628;23.380;2023-05-03T05:27:48;4.90;;;2.50;;
6693;SDS011;3384;42.628;23.380;2023-05-03T05:30:14;6.77;;;2.23;;
6693;SDS011;3384;42.628;23.380;2023-05-03T05:32:41;6.33;;;2.90;;
6693;SDS011;3384;42.628;23.380;2023-05-03T05:35:08;2.87;;;2.77;;
6693;SDS011;3384;42.628;23.380;2023-05-03T05:37:35;2.70;;;2.60;;
6693;SDS011;3384;42.628;23.380;2023-05-03T05:40:01;9.03;;;2.50;;
6693;SDS011;3384;42.628;23.380;2023-05-03T05:42:30;9.10;;;2.80;;
6693;SDS011;3384;42.628;23.380;2023-05-03T05:44:59;3.57;;;2.10;;
6693;SDS011;3384;42.628;23.380;2023-05-03T05:47:25;3.17;;;1.90;;
6693;SDS011;3384;42.628;23.380;2023-05-03T05:49:54;3.73;;;3.30;;
6693;SDS011;3384;42.628;23.380;2023-05-03T05:52:20;2.80;;;2.30;;
6693;SDS011;3384;42.628;23.380;2023-05-03T05:54:47;2.50;;;2.30;;
6693;SDS011;3384;42.628;23.380;2023-05-03T05:57:13;2.47;;;2.10;;
6693;SDS011;3384;42.628;23.380;2023-05-03T05:59:42;2.30;;;2.20;;
6693;SDS011;3384;42.628;23.380;2023-05-03T06:02:11;6.17;;;1.73;;
6693;SDS011;3384;42.628;23.380;2023-05-03T06:04:39;2.80;;;2.60;;
6693;SDS011;3384;42.628;23.380;2023-05-03T06:07:05;2.60;;;2.40;;
6693;SDS011;3384;42.628;23.380;2023-05-03T06:09:32;3.93;;;2.20;;
6693;SDS011;3384;42.628;23.380;2023-05-03T06:11:58;3.03;;;2.83;;
6693;SDS011;3384;42.628;23.380;2023-05-03T06:14:25;2.97;;;2.77;;
6693;SDS011;3384;42.628;23.380;2023-05-03T06:16:53;2.60;;;1.97;;
6693;SDS011;3384;42.628;23.380;2023-05-03T06:19:20;2.13;;;2.03;;
6693;SDS011;3384;42.628;23.380;2023-05-03T06:21:48;5.80;;;4.00;;
6693;SDS011;3384;42.628;23.380;2023-05-03T06:24:15;5.70;;;2.30;;
6693;SDS011;3384;42.628;23.380;2023-05-03T06:26:45;2.40;;;1.57;;
6693;SDS011;3384;42.628;23.380;2023-05-03T06:29:11;6.90;;;2.10;;
6693;SDS011;3384;42.628;23.380;2023-05-03T06:31:38;3.07;;;2.50;;
6693;SDS011;3384;42.628;23.380;2023-05-03T06:34:07;2.13;;;2.03;;
6693;SDS011;3384;42.628;23.380;2023-05-03T06:36:33;3.10;;;2.90;;
6693;SDS011;3384;42.628;23.380;2023-05-03T06:39:00;2.50;;;2.40;;
6693;SDS011;3384;42.628;23.380;2023-05-03T06:41:29;4.33;;;2.93;;
6693;SDS011;3384;42.628;23.380;2023-05-03T06:43:55;11.40;;;2.00;;
6693;SDS011;3384;42.628;23.380;2023-05-03T06:46:22;2.53;;;2.43;;
6693;SDS011;3384;42.628;23.380;2023-05-03T06:48:48;5.23;;;2.63;;
6693;SDS011;3384;42.628;23.380;2023-05-03T06:51:16;5.63;;;2.63;;
6693;SDS011;3384;42.628;23.380;2023-05-03T06:53:43;5.93;;;2.40;;
6693;SDS011;3384;42.628;23.380;2023-05-03T06:56:10;3.87;;;3.67;;
6693;SDS011;3384;42.628;23.380;2023-05-03T06:58:36;2.70;;;2.60;;
6693;SDS011;3384;42.628;23.380;2023-05-03T07:01:03;2.30;;;2.20;;
6693;SDS011;3384;42.628;23.380;2023-05-03T07:03:29;2.40;;;2.30;;
6693;SDS011;3384;42.628;23.380;2023-05-03T07:05:56;9.30;;;2.23;;
6693;SDS011;3384;42.628;23.380;2023-05-03T07:08:24;2.83;;;2.63;;
6693;SDS011;3384;42.628;23.380;2023-05-03T07:10:51;4.60;;;2.70;;
6693;SDS011;3384;42.628;23.380;2023-05-03T07:13:18;5.70;;;3.10;;
6693;SDS011;3384;42.628;23.380;2023-05-03T07:15:45;4.90;;;2.33;;
6693;SDS011;3384;42.628;23.380;2023-05-03T07:18:11;6.33;;;4.33;;
6693;SDS011;3384;42.628;23.380;2023-05-03T07:20:38;3.50;;;3.20;;
6693;SDS011;3384;42.628;23.380;2023-05-03T07:23:04;3.03;;;2.57;;
6693;SDS011;3384;42.628;23.380;2023-05-03T07:25:33;2.23;;;2.00;;
6693;SDS011;3384;42.628;23.380;2023-05-03T07:28:00;6.20;;;2.07;;
6693;SDS011;3384;42.628;23.380;2023-05-03T07:30:27;5.80;;;2.93;;
6693;SDS011;3384;42.628;23.380;2023-05-03T07:32:54;3.33;;;2.73;;
6693;SDS011;3384;42.628;23.380;2023-05-03T07:35:21;2.37;;;2.27;;
6693;SDS011;3384;42.628;23.380;2023-05-03T07:37:47;4.53;;;2.80;;
6693;SDS011;3384;42.628;23.380;2023-05-03T07:40:14;2.30;;;2.20;;
6693;SDS011;3384;42.628;23.380;2023-05-03T07:42:42;2.60;;;2.50;;
6693;SDS011;3384;42.628;23.380;2023-05-03T07:45:09;9.67;;;5.37;;
6693;SDS011;3384;42.628;23.380;2023-05-03T07:47:35;10.70;;;4.20;;
6693;SDS011;3384;42.628;23.380;2023-05-03T07:50:04;6.00;;;4.00;;
6693;SDS011;3384;42.628;23.380;2023-05-03T07:52:34;2.50;;;2.40;;
6693;SDS011;3384;42.628;23.380;2023-05-03T07:55:01;4.67;;;2.90;;
6693;SDS011;3384;42.628;23.380;2023-05-03T07:57:27;4.60;;;2.37;;
6693;SDS011;3384;42.628;23.380;2023-05-03T07:59:56;2.30;;;2.20;;
6693;SDS011;3384;42.628;23.380;2023-05-03T08:02:23;2.50;;;2.40;;
6693;SDS011;3384;42.628;23.380;2023-05-03T08:04:50;6.00;;;4.13;;
6693;SDS011;3384;42.628;23.380;2023-05-03T08:07:16;4.20;;;2.57;;
6693;SDS011;3384;42.628;23.380;2023-05-03T08:09:43;2.33;;;2.13;;
6693;SDS011;3384;42.628;23.380;2023-05-03T08:12:10;2.83;;;2.73;;
6693;SDS011;3384;42.628;23.380;2023-05-03T08:14:36;2.30;;;2.20;;
6693;SDS011;3384;42.628;23.380;2023-05-03T08:17:06;2.70;;;2.50;;
6693;SDS011;3384;42.628;23.380;2023-05-03T08:19:33;4.10;;;3.80;;
6693;SDS011;3384;42.628;23.380;2023-05-03T08:22:00;4.10;;;3.90;;
6693;SDS011;3384;42.628;23.380;2023-05-03T08:24:27;4.60;;;2.67;;
6693;SDS011;3384;42.628;23.380;2023-05-03T08:26:54;17.50;;;3.40;;
6693;SDS011;3384;42.628;23.380;2023-05-03T08:29:21;2.80;;;2.70;;
6693;SDS011;3384;42.628;23.380;2023-05-03T08:31:47;8.70;;;3.13;;
6693;SDS011;3384;42.628;23.380;2023-05-03T08:34:15;3.27;;;2.67;;
6693;SDS011;3384;42.628;23.380;2023-05-03T08:36:42;2.80;;;2.63;;
6693;SDS011;3384;42.628;23.380;2023-05-03T08:39:08;2.93;;;2.40;;
6693;SDS011;3384;42.628;23.380;2023-05-03T08:41:35;5.20;;;2.43;;
6693;SDS011;3384;42.628;23.380;2023-05-03T08:44:02;3.10;;;2.90;;
6693;SDS011;3384;42.628;23.380;2023-05-03T08:46:29;4.10;;;3.00;;
6693;SDS011;3384;42.628;23.380;2023-05-03T08:48:56;2.93;;;2.83;;
6693;SDS011;3384;42.628;23.380;2023-05-03T08:51:25;2.17;;;2.07;;
6693;SDS011;3384;42.628;23.380;2023-05-03T08:53:52;2.73;;;2.53;;
6693;SDS011;3384;42.628;23.380;2023-05-03T08:56:24;4.60;;;3.30;;
6693;SDS011;3384;42.628;23.380;2023-05-03T08:58:53;3.50;;;3.30;;
6693;SDS011;3384;42.628;23.380;2023-05-03T09:01:20;3.83;;;3.63;;
6693;SDS011;3384;42.628;23.380;2023-05-03T09:03:47;3.87;;;3.67;;
6693;SDS011;3384;42.628;23.380;2023-05-03T09:06:18;3.53;;;1.97;;
6693;SDS011;3384;42.628;23.380;2023-05-03T09:08:46;2.77;;;2.67;;
6693;SDS011;3384;42.628;23.380;2023-05-03T09:11:19;3.47;;;2.80;;
6693;SDS011;3384;42.628;23.380;2023-05-03T09:13:46;2.90;;;2.70;;
6693;SDS011;3384;42.628;23.380;2023-05-03T09:16:20;4.23;;;2.47;;
6693;SDS011;3384;42.628;23.380;2023-05-03T09:18:55;2.80;;;2.70;;
6693;SDS011;3384;42.628;23.380;2023-05-03T09:21:21;2.67;;;2.53;;
6693;SDS011;3384;42.628;23.380;2023-05-03T09:23:49;2.33;;;2.23;;
6693;SDS011;3384;42.628;23.380;2023-05-03T09:26:25;4.63;;;2.80;;
6693;SDS011;3384;42.628;23.380;2023-05-03T09:28:52;3.37;;;3.07;;
6693;SDS011;3384;42.628;23.380;2023-05-03T09:31:20;16.17;;;10.37;;
6693;SDS011;3384;42.628;23.380;2023-05-03T09:33:47;7.83;;;4.40;;
6693;SDS011;3384;42.628;23.380;2023-05-03T09:36:14;7.83;;;3.60;;
6693;SDS011;3384;42.628;23.380;2023-05-03T09:38:40;4.60;;;2.90;;
6693;SDS011;3384;42.628;23.380;2023-05-03T09:41:08;3.57;;;3.37;;
6693;SDS011;3384;42.628;23.380;2023-05-03T09:43:35;2.60;;;2.50;;
6693;SDS011;3384;42.628;23.380;2023-05-03T09:46:13;3.30;;;3.20;;
6693;SDS011;3384;42.628;23.380;2023-05-03T09:48:40;2.63;;;2.53;;
6693;SDS011;3384;42.628;23.380;2023-05-03T09:51:07;3.30;;;2.73;;
6693;SDS011;3384;42.628;23.380;2023-05-03T09:53:35;2.73;;;2.53;;
6693;SDS011;3384;42.628;23.380;2023-05-03T09:56:03;2.90;;;2.67;;
6693;SDS011;3384;42.628;23.380;2023-05-03T09:58:31;3.43;;;2.70;;
6693;SDS011;3384;42.628;23.380;2023-05-03T10:00:59;2.87;;;2.67;;
6693;SDS011;3384;42.628;23.380;2023-05-03T10:03:27;3.30;;;3.10;;
6693;SDS011;3384;42.628;23.380;2023-05-03T10:05:54;3.30;;;3.00;;
6693;SDS011;3384;42.628;23.380;2023-05-03T10:08:23;2.40;;;2.30;;
6693;SDS011;3384;42.628;23.380;2023-05-03T10:10:51;5.63;;;2.10;;
6693;SDS011;3384;42.628;23.380;2023-05-03T10:13:19;4.73;;;3.43;;
6693;SDS011;3384;42.628;23.380;2023-05-03T10:15:47;1.90;;;1.90;;
6693;SDS011;3384;42.628;23.380;2023-05-03T10:18:14;2.70;;;2.40;;
6693;SDS011;3384;42.628;23.380;2023-05-03T10:20:43;3.27;;;3.17;;
6693;SDS011;3384;42.628;23.380;2023-05-03T10:23:11;3.10;;;3.00;;
6693;SDS011;3384;42.628;23.380;2023-05-03T10:25:38;2.70;;;2.60;;
6693;SDS011;3384;42.628;23.380;2023-05-03T10:28:05;3.57;;;3.13;;
6693;SDS011;3384;42.628;23.380;2023-05-03T10:30:32;3.60;;;3.30;;
6693;SDS011;3384;42.628;23.380;2023-05-03T10:33:27;2.97;;;2.77;;
6693;SDS011;3384;42.628;23.380;2023-05-03T10:35:52;3.37;;;3.10;;
6693;SDS011;3384;42.628;23.380;2023-05-03T10:38:19;3.00;;;2.90;;
6693;SDS011;3384;42.628;23.380;2023-05-03T10:40:46;2.07;;;1.97;;
6693;SDS011;3384;42.628;23.380;2023-05-03T10:46:07;4.80;;;2.73;;
6693;SDS011;3384;42.628;23.380;2023-05-03T10:48:37;3.83;;;2.63;;
6693;SDS011;3384;42.628;23.380;2023-05-03T10:53:45;4.97;;;2.67;;
6693;SDS011;3384;42.628;23.380;2023-05-03T10:56:12;6.03;;;2.17;;
6693;SDS011;3384;42.628;23.380;2023-05-03T10:58:41;2.90;;;2.60;;
6693;SDS011;3384;42.628;23.380;2023-05-03T11:01:08;6.10;;;2.33;;
6693;SDS011;3384;42.628;23.380;2023-05-03T11:03:48;3.53;;;2.53;;
6693;SDS011;3384;42.628;23.380;2023-05-03T11:06:30;2.87;;;2.67;;
6693;SDS011;3384;42.628;23.380;2023-05-03T11:08:58;2.63;;;2.33;;
6693;SDS011;3384;42.628;23.380;2023-05-03T11:11:25;3.17;;;2.97;;
6693;SDS011;3384;42.628;23.380;2023-05-03T11:13:51;3.10;;;2.50;;
6693;SDS011;3384;42.628;23.380;2023-05-03T11:16:18;2.60;;;2.00;;
6693;SDS011;3384;42.628;23.380;2023-05-03T11:18:45;2.53;;;2.10;;
6693;SDS011;3384;42.628;23.380;2023-05-03T11:21:14;2.70;;;2.50;;
6693;SDS011;3384;42.628;23.380;2023-05-03T11:23:41;4.80;;;3.03;;
6693;SDS011;3384;42.628;23.380;2023-05-03T11:26:08;2.73;;;2.60;;
6693;SDS011;3384;42.628;23.380;2023-05-03T11:28:36;3.00;;;2.90;;
6693;SDS011;3384;42.628;23.380;2023-05-03T11:31:03;12.13;;;3.70;;
6693;SDS011;3384;42.628;23.380;2023-05-03T11:33:30;3.47;;;3.23;;
6693;SDS011;3384;42.628;23.380;2023-05-03T11:35:59;5.43;;;2.90;;
6693;SDS011;3384;42.628;23.380;2023-05-03T11:38:28;3.83;;;2.97;;
6693;SDS011;3384;42.628;23.380;2023-05-03T11:40:55;4.07;;;3.00;;
6693;SDS011;3384;42.628;23.380;2023-05-03T11:43:21;2.27;;;2.17;;
6693;SDS011;3384;42.628;23.380;2023-05-03T11:45:49;3.90;;;2.30;;
6693;SDS011;3384;42.628;23.380;2023-05-03T11:48:17;3.87;;;2.80;;
6693;SDS011;3384;42.628;23.380;2023-05-03T11:50:44;2.90;;;2.80;;
6693;SDS011;3384;42.628;23.380;2023-05-03T11:53:11;4.00;;;2.90;;
6693;SDS011;3384;42.628;23.380;2023-05-03T11:55:40;3.70;;;3.50;;
6693;SDS011;3384;42.628;23.380;2023-05-03T11:58:07;8.53;;;3.10;;
6693;SDS011;3384;42.628;23.380;2023-05-03T12:00:35;5.47;;;3.00;;
6693;SDS011;3384;42.628;23.380;2023-05-03T12:03:01;5.00;;;2.50;;
6693;SDS011;3384;42.628;23.380;2023-05-03T12:05:28;3.50;;;3.30;;
6693;SDS011;3384;42.628;23.380;2023-05-03T12:07:55;2.97;;;2.87;;
6693;SDS011;3384;42.628;23.380;2023-05-03T12:10:22;5.07;;;2.50;;
6693;SDS011;3384;42.628;23.380;2023-05-03T12:12:52;7.83;;;2.80;;
6693;SDS011;3384;42.628;23.380;2023-05-03T12:15:26;10.40;;;3.20;;
6693;SDS011;3384;42.628;23.380;2023-05-03T12:17:54;4.67;;;4.30;;
6693;SDS011;3384;42.628;23.380;2023-05-03T12:20:22;5.63;;;3.37;;
6693;SDS011;3384;42.628;23.380;2023-05-03T12:22:49;4.43;;;2.50;;
6693;SDS011;3384;42.628;23.380;2023-05-03T12:25:16;3.57;;;3.37;;
6693;SDS011;3384;42.628;23.380;2023-05-03T12:27:43;3.97;;;3.47;;
6693;SDS011;3384;42.628;23.380;2023-05-03T12:30:12;3.23;;;3.03;;
6693;SDS011;3384;42.628;23.380;2023-05-03T12:32:39;2.80;;;2.70;;
6693;SDS011;3384;42.628;23.380;2023-05-03T12:35:06;4.53;;;3.23;;
6693;SDS011;3384;42.628;23.380;2023-05-03T12:37:33;4.13;;;3.73;;
6693;SDS011;3384;42.628;23.380;2023-05-03T12:40:00;3.87;;;3.10;;
6693;SDS011;3384;42.628;23.380;2023-05-03T12:42:27;3.80;;;3.60;;
6693;SDS011;3384;42.628;23.380;2023-05-03T12:44:55;4.07;;;3.93;;
6693;SDS011;3384;42.628;23.380;2023-05-03T12:47:23;3.57;;;2.97;;
6693;SDS011;3384;42.628;23.380;2023-05-03T12:49:50;4.70;;;4.30;;
6693;SDS011;3384;42.628;23.380;2023-05-03T12:52:17;6.00;;;3.23;;
6693;SDS011;3384;42.628;23.380;2023-05-03T12:54:44;5.70;;;4.13;;
6693;SDS011;3384;42.628;23.380;2023-05-03T12:57:11;3.30;;;3.20;;
6693;SDS011;3384;42.628;23.380;2023-05-03T12:59:38;5.23;;;4.07;;
6693;SDS011;3384;42.628;23.380;2023-05-03T13:02:05;3.63;;;3.50;;
6693;SDS011;3384;42.628;23.380;2023-05-03T13:04:34;4.83;;;3.40;;
6693;SDS011;3384;42.628;23.380;2023-05-03T13:07:00;4.70;;;4.17;;
6693;SDS011;3384;42.628;23.380;2023-05-03T13:09:27;4.23;;;3.93;;
6693;SDS011;3384;42.628;23.380;2023-05-03T13:11:55;4.60;;;4.20;;
6693;SDS011;3384;42.628;23.380;2023-05-03T13:14:21;4.90;;;4.53;;
6693;SDS011;3384;42.628;23.380;2023-05-03T13:16:48;4.23;;;4.00;;
6693;SDS011;3384;42.628;23.380;2023-05-03T13:19:15;4.70;;;4.50;;
6693;SDS011;3384;42.628;23.380;2023-05-03T13:21:43;5.00;;;4.63;;
6693;SDS011;3384;42.628;23.380;2023-05-03T13:24:11;3.63;;;3.33;;
6693;SDS011;3384;42.628;23.380;2023-05-03T13:26:38;4.10;;;3.73;;
6693;SDS011;3384;42.628;23.380;2023-05-03T13:29:05;4.50;;;4.10;;
6693;SDS011;3384;42.628;23.380;2023-05-03T13:31:31;4.30;;;4.10;;
6693;SDS011;3384;42.628;23.380;2023-05-03T13:33:58;5.17;;;4.23;;
6693;SDS011;3384;42.628;23.380;2023-05-03T13:36:24;5.40;;;5.00;;
6693;SDS011;3384;42.628;23.380;2023-05-03T13:38:53;5.17;;;4.73;;
6693;SDS011;3384;42.628;23.380;2023-05-03T13:41:19;12.53;;;6.60;;
6693;SDS011;3384;42.628;23.380;2023-05-03T13:43:46;5.53;;;5.20;;
6693;SDS011;3384;42.628;23.380;2023-05-03T13:46:13;4.90;;;4.50;;
6693;SDS011;3384;42.628;23.380;2023-05-03T13:48:40;5.50;;;4.50;;
6693;SDS011;3384;42.628;23.380;2023-05-03T13:51:08;4.70;;;4.50;;
6693;SDS011;3384;42.628;23.380;2023-05-03T13:53:34;5.30;;;5.00;;
6693;SDS011;3384;42.628;23.380;2023-05-03T13:56:03;8.00;;;5.87;;
6693;SDS011;3384;42.628;23.380;2023-05-03T13:58:29;5.87;;;5.33;;
6693;SDS011;3384;42.628;23.380;2023-05-03T14:00:56;6.53;;;6.00;;
6693;SDS011;3384;42.628;23.380;2023-05-03T14:03:23;6.53;;;6.10;;
6693;SDS011;3384;42.628;23.380;2023-05-03T14:05:49;5.93;;;5.60;;
6693;SDS011;3384;42.628;23.380;2023-05-03T14:08:16;10.83;;;6.43;;
6693;SDS011;3384;42.628;23.380;2023-05-03T14:10:43;8.47;;;7.77;;
6693;SDS011;3384;42.628;23.380;2023-05-03T14:13:11;6.93;;;6.53;;
6693;SDS011;3384;42.628;23.380;2023-05-03T14:15:37;7.17;;;6.60;;
6693;SDS011;3384;42.628;23.380;2023-05-03T14:18:04;8.53;;;7.70;;
6693;SDS011;3384;42.628;23.380;2023-05-03T14:20:32;8.93;;;5.83;;
6693;SDS011;3384;42.628;23.380;2023-05-03T14:22:58;6.13;;;5.93;;
6693;SDS011;3384;42.628;23.380;2023-05-03T14:25:25;6.67;;;6.23;;
6693;SDS011;3384;42.628;23.380;2023-05-03T14:27:52;9.43;;;6.70;;
6693;SDS011;3384;42.628;23.380;2023-05-03T14:30:20;5.93;;;5.63;;
6693;SDS011;3384;42.628;23.380;2023-05-03T14:32:46;6.50;;;6.07;;
6693;SDS011;3384;42.628;23.380;2023-05-03T14:35:13;6.30;;;6.00;;
6693;SDS011;3384;42.628;23.380;2023-05-03T14:37:40;7.10;;;6.43;;
6693;SDS011;3384;42.628;23.380;2023-05-03T14:40:07;8.67;;;7.50;;
6693;SDS011;3384;42.628;23.380;2023-05-03T14:42:34;7.90;;;7.30;;
6693;SDS011;3384;42.628;23.380;2023-05-03T14:45:01;7.43;;;6.93;;
6693;SDS011;3384;42.628;23.380;2023-05-03T14:47:29;13.73;;;6.80;;
6693;SDS011;3384;42.628;23.380;2023-05-03T14:49:55;7.73;;;7.17;;
6693;SDS011;3384;42.628;23.380;2023-05-03T14:52:22;10.33;;;9.43;;
6693;SDS011;3384;42.628;23.380;2023-05-03T14:54:48;8.43;;;7.70;;
6693;SDS011;3384;42.628;23.380;2023-05-03T14:57:15;9.90;;;9.10;;
6693;SDS011;3384;42.628;23.380;2023-05-03T14:59:42;9.07;;;8.27;;
6693;SDS011;3384;42.628;23.380;2023-05-03T15:02:09;10.90;;;9.30;;
6693;SDS011;3384;42.628;23.380;2023-05-03T15:04:37;9.33;;;8.63;;
6693;SDS011;3384;42.628;23.380;2023-05-03T15:07:04;9.30;;;8.17;;